Time;durP1;ratioP1;P1;durP2;ratioP2;P2;SDS_P1;SDS_P2;PMS_P1;PMS_P2;Temp;Humidity;BMP_temperature;BMP_pressure;BME280_temperature;BME280_humidity;BME280_pressure;Samples;Min_cycle;Max_cycle;Signal;HPM_P1;HPM_P2
2022/01/02 00:04:21;;;;;;;3.47;2.40;;;;;;;;;;20761642;28;20195;-82
2022/01/02 00:14:46;;;;;;;3.17;1.97;;;8.20;99.90;;;;;;20786274;28;20261;-83
2022/01/02 00:25:22;;;;;;;3.57;1.90;;;;;;;;;;20746669;28;20216;-84
2022/01/02 00:35:42;;;;;;;2.70;1.83;;;;;;;;;;20740186;28;20351;-81
2022/01/02 00:46:04;;;;;;;3.50;1.77;;;8.10;99.90;;;;;;20735654;28;20277;-82
2022/01/02 00:56:29;;;;;;;2.87;1.57;;;;;;;;;;20751464;28;20231;-82
2022/01/02 01:06:50;;;;;;;2.73;1.90;;;;;;;;;;20751978;28;20281;-82
2022/01/02 01:17:13;;;;;;;2.57;1.60;;;;;;;;;;20751320;28;20284;-82
2022/01/02 01:27:34;;;;;;;3.77;2.30;;;;;;;;;;20747616;28;20750;-82
2022/01/02 01:37:54;;;;;;;3.13;1.87;;;;;;;;;;20765670;28;20712;-83
2022/01/02 01:48:14;;;;;;;4.27;1.83;;;;;;;;;;20763642;28;20254;-82
2022/01/02 01:58:35;;;;;;;2.53;1.87;;;;;;;;;;20755210;28;20273;-84
2022/01/02 02:08:59;;;;;;;2.50;1.70;;;7.50;99.90;;;;;;20749963;28;20261;-82
2022/01/02 02:19:19;;;;;;;4.80;2.77;;;;;;;;;;20751049;28;20203;-80
2022/01/02 02:29:40;;;;;;;2.97;2.40;;;;;;;;;;20743898;28;20647;-80
2022/01/02 02:40:01;;;;;;;5.80;3.10;;;7.50;99.90;;;;;;20735397;28;20250;-80
2022/01/02 02:50:21;;;;;;;2.80;1.80;;;;;;;;;;20776288;28;20247;-81
2022/01/02 03:00:41;;;;;;;2.33;1.90;;;;;;;;;;20759760;28;20770;-80
2022/01/02 03:11:02;;;;;;;2.47;1.50;;;;;;;;;;20748781;28;20285;-80
2022/01/02 03:21:22;;;;;;;3.30;2.03;;;;;;;;;;20755880;28;20242;-80
2022/01/02 03:31:42;;;;;;;3.67;2.03;;;;;;;;;;20756661;28;20309;-80
2022/01/02 03:42:03;;;;;;;2.73;2.03;;;;;;;;;;20768790;28;20272;-80
2022/01/02 03:52:26;;;;;;;2.83;1.80;;;7.30;99.90;;;;;;20769525;28;20266;-80
2022/01/02 04:02:48;;;;;;;3.13;2.00;;;7.30;99.90;;;;;;20754882;28;20199;-80
2022/01/02 04:13:09;;;;;;;3.67;2.33;;;;;;;;;;20752897;28;20223;-80
2022/01/02 04:23:29;;;;;;;2.97;2.07;;;;;;;;;;20764186;28;20766;-81
2022/01/02 04:33:49;;;;;;;4.90;2.10;;;;;;;;;;20763816;28;20775;-80
2022/01/02 04:44:10;;;;;;;3.90;2.30;;;;;;;;;;20763763;28;20242;-80
2022/01/02 04:54:30;;;;;;;4.47;2.07;;;;;;;;;;20756457;28;20277;-80
2022/01/02 05:04:51;;;;;;;2.73;1.80;;;;;;;;;;20762894;28;20289;-81
2022/01/02 05:15:11;;;;;;;2.13;1.33;;;;;;;;;;20748084;28;20320;-80
2022/01/02 05:25:32;;;;;;;2.30;1.47;;;;;;;;;;20749995;28;20595;-80
2022/01/02 05:35:53;;;;;;;2.17;1.50;;;;;;;;;;20748054;28;20300;-80
2022/01/02 05:46:14;;;;;;;2.13;1.57;;;;;;;;;;20747735;28;20241;-80
2022/01/02 05:56:35;;;;;;;2.07;1.10;;;;;;;;;;20739196;28;20241;-80
2022/01/02 06:06:55;;;;;;;1.67;1.20;;;;;;;;;;20747964;28;20265;-80
2022/01/02 06:17:16;;;;;;;1.93;1.00;;;;;;;;;;20761090;28;20223;-80
2022/01/02 06:27:37;;;;;;;2.53;1.43;;;;;;;;;;20741139;28;20269;-81
2022/01/02 06:37:57;;;;;;;1.33;1.23;;;;;;;;;;20728961;28;20253;-80
2022/01/02 06:48:22;;;;;;;2.33;1.30;;;;;;;;;;20784007;28;20290;-80
2022/01/02 06:58:43;;;;;;;1.87;1.17;;;;;;;;;;20796582;28;20245;-81
2022/01/02 07:09:04;;;;;;;2.10;1.70;;;;;;;;;;20768914;28;20281;-81
2022/01/02 07:19:24;;;;;;;3.07;1.90;;;;;;;;;;20766849;28;20557;-82
2022/01/02 07:29:44;;;;;;;2.57;1.70;;;;;;;;;;20751466;28;20297;-82
2022/01/02 07:40:04;;;;;;;2.60;1.77;;;;;;;;;;20771646;28;20696;-82
2022/01/02 07:50:24;;;;;;;2.17;1.50;;;;;;;;;;20771765;28;20648;-82
2022/01/02 08:00:45;;;;;;;2.83;1.60;;;;;;;;;;20756429;28;20273;-83
2022/01/02 08:11:05;;;;;;;2.50;1.87;;;;;;;;;;20710965;28;20243;-82
2022/01/02 08:21:25;;;;;;;2.67;1.80;;;;;;;;;;20736684;28;20299;-82
2022/01/02 08:31:45;;;;;;;3.53;2.07;;;;;;;;;;20760726;28;20288;-82
2022/01/02 08:42:05;;;;;;;1.87;1.30;;;;;;;;;;20770899;28;20261;-83
2022/01/02 08:52:25;;;;;;;2.13;1.67;;;;;;;;;;20771612;28;20334;-82
2022/01/02 09:02:45;;;;;;;2.23;1.50;;;;;;;;;;20763206;28;20273;-82
2022/01/02 09:13:07;;;;;;;2.17;1.20;;;;;;;;;;20775447;28;20296;-82
2022/01/02 09:23:27;;;;;;;3.47;1.33;;;;;;;;;;20770168;28;20211;-82
2022/01/02 09:33:47;;;;;;;3.20;2.07;;;;;;;;;;20739325;28;20297;-82
2022/01/02 09:44:07;;;;;;;2.00;1.40;;;7.10;99.90;;;;;;20762472;28;20762;-82
2022/01/02 09:54:28;;;;;;;1.57;1.00;;;;;;;;;;20737866;28;20596;-82
2022/01/02 10:04:37;;;;;;;2.00;1.27;;;;;;;;;;20732840;28;20215;-82
2022/01/02 10:14:39;;;;;;;1.33;0.87;;;;;;;;;;20716752;28;20561;-83
2022/01/02 10:24:47;;;;;;;1.73;1.10;;;;;;;;;;20672892;28;20258;-82
2022/01/02 10:34:50;;;;;;;1.43;0.80;;;7.70;99.90;;;;;;20741604;28;20578;-82
2022/01/02 10:44:52;;;;;;;2.27;1.17;;;;;;;;;;20788132;28;20253;-82
2022/01/02 10:54:56;;;;;;;2.20;0.90;;;7.90;99.90;;;;;;20735054;28;20224;-81
2022/01/02 11:05:12;;;;;;;1.63;0.50;;;;;;;;;;20723200;28;20242;-82
2022/01/02 11:15:22;;;;;;;1.07;0.70;;;8.30;99.90;;;;;;20773322;28;20305;-80
2022/01/02 11:25:27;;;;;;;1.27;0.57;;;;;;;;;;20755929;28;20602;-82
2022/01/02 11:35:31;;;;;;;0.70;0.50;;;;;;;;;;20760979;28;20239;-81
2022/01/02 11:45:36;;;;;;;0.83;0.50;;;;;;;;;;20741998;28;20187;-81
2022/01/02 11:55:39;;;;;;;1.20;0.73;;;;;;;;;;20767864;28;20220;-81
2022/01/02 12:06:22;;;;;;;0.80;0.60;;;8.70;99.90;;;;;;20756543;28;20285;-80
2022/01/02 12:16:35;;;;;;;0.63;0.50;;;8.80;99.90;;;;;;20756048;28;20696;-81
2022/01/02 12:26:39;;;;;;;1.17;0.53;;;;;;;;;;20807896;28;20219;-80
2022/01/02 12:36:42;;;;;;;0.60;0.60;;;;;;;;;;20773285;28;20238;-80
2022/01/02 12:46:49;;;;;;;0.90;0.50;;;8.80;99.90;;;;;;20767831;28;20223;-80
2022/01/02 12:56:52;;;;;;;1.40;0.80;;;;;;;;;;20723812;28;20242;-80
2022/01/02 13:06:55;;;;;;;1.00;0.63;;;;;;;;;;20755069;28;20215;-81
2022/01/02 13:16:57;;;;;;;0.87;0.60;;;;;;;;;;20756236;28;20231;-80
2022/01/02 13:26:59;;;;;;;0.60;0.50;;;;;;;;;;20733602;28;20283;-80
2022/01/02 13:37:02;;;;;;;0.60;0.40;;;;;;;;;;20733750;28;20223;-81
2022/01/02 13:47:04;;;;;;;1.10;0.50;;;;;;;;;;20764976;28;20219;-80
2022/01/02 13:57:07;;;;;;;2.27;1.03;;;;;;;;;;20747939;28;20295;-80
2022/01/02 14:07:09;;;;;;;0.80;0.67;;;;;;;;;;20750166;28;20227;-80
2022/01/02 14:27:15;;;;;;;0.57;0.57;;;;;;;;;;20748324;28;20269;-80
2022/01/02 14:37:18;;;;;;;1.00;0.70;;;;;;;;;;20776203;28;20269;-80
2022/01/02 14:47:20;;;;;;;1.13;0.67;;;;;;;;;;20732240;28;20665;-80
2022/01/02 14:57:22;;;;;;;0.90;0.80;;;;;;;;;;20763966;28;20257;-81
2022/01/02 15:07:24;;;;;;;0.90;0.77;;;;;;;;;;20768792;28;20629;-80
2022/01/02 15:17:30;;;;;;;1.53;0.73;;;;;;;;;;20760170;28;20589;-80
2022/01/02 15:27:32;;;;;;;0.90;0.67;;;;;;;;;;20775739;28;20219;-80
2022/01/02 15:37:34;;;;;;;1.27;0.70;;;;;;;;;;20758486;28;20273;-81
2022/01/02 15:47:37;;;;;;;3.10;1.00;;;;;;;;;;20775207;28;20210;-80
2022/01/02 15:57:39;;;;;;;1.07;0.60;;;;;;;;;;20769677;28;20265;-80
2022/01/02 16:07:42;;;;;;;2.30;0.90;;;;;;;;;;20728843;28;20220;-80
2022/01/02 16:17:44;;;;;;;1.77;0.80;;;;;;;;;;20735871;28;20226;-80
2022/01/02 16:27:46;;;;;;;1.03;0.50;;;;;;;;;;20793941;28;20211;-80
2022/01/02 16:37:48;;;;;;;1.20;0.60;;;;;;;;;;20776926;28;20215;-80
2022/01/02 16:47:50;;;;;;;0.90;0.70;;;;;;;;;;20761733;28;20253;-80
2022/01/02 16:57:52;;;;;;;0.83;0.50;;;;;;;;;;20751830;28;20219;-80
2022/01/02 17:07:54;;;;;;;0.57;0.40;;;10.20;99.90;;;;;;20768341;28;20240;-80
2022/01/02 17:17:57;;;;;;;3.17;0.87;;;;;;;;;;20747546;28;20231;-80
2022/01/02 17:27:59;;;;;;;1.07;0.77;;;;;;;;;;20729717;28;20305;-80
2022/01/02 17:38:01;;;;;;;0.90;0.77;;;;;;;;;;20750768;28;20254;-81
2022/01/02 17:48:03;;;;;;;1.13;0.63;;;;;;;;;;20767261;28;20269;-81
2022/01/02 17:58:04;;;;;;;0.70;0.57;;;;;;;;;;20749702;28;20226;-81
2022/01/02 18:08:06;;;;;;;1.63;0.73;;;;;;;;;;20764257;28;20219;-81
2022/01/02 18:18:08;;;;;;;1.17;0.70;;;;;;;;;;20731502;28;20261;-80
2022/01/02 18:28:10;;;;;;;0.80;0.53;;;10.10;99.90;;;;;;20745672;28;20234;-81
2022/01/02 18:38:13;;;;;;;0.80;0.50;;;;;;;;;;20733247;28;20235;-80
2022/01/02 18:48:14;;;;;;;0.97;0.50;;;;;;;;;;20764359;28;20266;-80
2022/01/02 18:58:16;;;;;;;3.23;0.60;;;;;;;;;;20747689;28;20235;-80
2022/01/02 19:08:18;;;;;;;0.77;0.50;;;;;;;;;;20759519;28;20211;-81
2022/01/02 19:18:21;;;;;;;1.30;0.73;;;;;;;;;;20762503;28;20290;-80
2022/01/02 19:28:23;;;;;;;1.00;0.77;;;;;;;;;;20727756;28;20247;-80
2022/01/02 19:38:24;;;;;;;0.50;0.50;;;;;;;;;;20711888;28;20285;-80
2022/01/02 19:48:29;;;;;;;0.43;0.43;;;;;;;;;;20743099;28;20215;-80
2022/01/02 19:58:31;;;;;;;1.43;0.70;;;;;;;;;;20759555;28;20227;-80
2022/01/02 20:08:40;;;;;;;1.13;0.87;;;;;;;;;;20653404;28;20215;-81
2022/01/02 20:18:45;;;;;;;1.50;0.30;;;;;;;;;;20670432;28;20704;-80
2022/01/02 20:28:49;;;;;;;1.37;0.67;;;;;;;;;;20744864;28;20262;-79
2022/01/02 20:38:52;;;;;;;5.13;0.67;;;;;;;;;;20749578;28;20227;-80
2022/01/02 20:48:53;;;;;;;0.80;0.60;;;;;;;;;;20732124;28;20219;-81
2022/01/02 20:58:55;;;;;;;1.13;0.63;;;;;;;;;;20748411;28;20235;-82
2022/01/02 21:08:57;;;;;;;0.43;0.43;;;;;;;;;;20746104;28;20575;-80
2022/01/02 21:19:01;;;;;;;0.93;0.50;;;;;;;;;;20737932;28;20254;-80
2022/01/02 21:29:04;;;;;;;0.43;0.30;;;;;;;;;;20734771;28;20223;-80
2022/01/02 21:39:06;;;;;;;1.27;0.50;;;;;;;;;;20755158;28;20227;-80
2022/01/02 21:49:08;;;;;;;7.70;0.80;;;;;;;;;;20735197;28;20215;-80
2022/01/02 21:59:09;;;;;;;1.00;0.70;;;;;;;;;;20727515;28;21614;-80
2022/01/02 22:09:12;;;;;;;1.20;0.60;;;;;;;;;;20721949;28;20273;-81
2022/01/02 22:19:14;;;;;;;2.40;1.07;;;;;;;;;;20692389;28;20227;-80
2022/01/02 22:29:16;;;;;;;0.67;0.40;;;;;;;;;;20715635;28;20219;-80
2022/01/02 22:39:19;;;;;;;3.30;0.77;;;11.00;99.90;;;;;;20724980;28;20293;-80
2022/01/02 22:49:22;;;;;;;0.47;0.47;;;11.10;99.90;;;;;;20706755;28;20219;-80
2022/01/02 22:59:27;;;;;;;0.43;0.37;;;;;;;;;;20741085;28;20223;-80
2022/01/02 23:09:29;;;;;;;2.43;0.53;;;;;;;;;;20740465;28;20208;-81
2022/01/02 23:19:40;;;;;;;1.37;0.63;;;;;;;;;;20756994;28;20220;-80
2022/01/02 23:29:42;;;;;;;3.30;0.60;;;;;;;;;;20748828;28;20214;-81
2022/01/02 23:39:44;;;;;;;2.93;0.30;;;;;;;;;;20755145;28;20330;-81
2022/01/02 23:50:09;;;;;;;1.03;0.50;;;11.30;99.90;;;;;;20753367;28;20247;-80
